Vliegveld raporten

 

EHGR - Gilze-Rijen Rnla, Netherlands
Distance from station: WZW 7km
Updated: 23-11-2019 02:06
Mist, Zwaar bewolkt
Mist, Zwaar bewolkt
 Wind van ZO
Wind: ZO 17 km/h
Temperatuur: 5°C
Wind Chill: 2°C
Dauwpunt: 3°C
Vochtigheid: 87%
Barometer: 999 hPa
Overzicht: Mist
Clouds: Zwaar bewolkt
Visibility: 8 km
Cloud details: Meestal bewolkt 2408 m
Zwaar bewolkt 2560 m
2019/11/23 01:06 EHGR 230106Z AUTO 13009KT 090V170 8000 BR BKN079 OVC084 05/03 Q0999 BLU
EHEH - Eindhoven Rnlafb, Netherlands
Distance from station: OZO 30km
Updated: 23-11-2019 02:26
unable to load EHEH data RC=
unable to load EHEH data RC=
 
EHVK - Volkel Rnlafb, Netherlands
Distance from station: O 48km
Updated: 23-11-2019 01:55
Meestal bewolkt
Meestal bewolkt
 Wind van O
Wind: O 17 km/h
Temperatuur: 5°C
Wind Chill: 2°C
Dauwpunt: 3°C
Vochtigheid: 87%
Barometer: 1000 hPa
Clouds: Meestal bewolkt
Visibility: 10 km
Cloud details: Enkele wolken 1128 m
Gedeeltelijk bewolkt 1890 m
Meestal bewolkt 2408 m
2019/11/23 00:55 EHVK 230055Z AUTO 10009KT 070V140 9999 FEW037 SCT062 BKN079 05/03 Q1000 BLU
 
EHWO - Woensdrecht Rnla, Netherlands
Distance from station: WZW 50km
Updated: 23-11-2019 02:25
Light drizzle, Zwaar bewolkt
Light drizzle, Zwaar bewolkt
 Wind van O
Wind: O 15 km/h
Temperatuur: 6°C
Wind Chill: 3°C
Dauwpunt: 4°C
Vochtigheid: 87%
Barometer: 998 hPa
Overzicht: Light Drizzle
Clouds: Zwaar bewolkt
Visibility: 8 km
Cloud details: Gedeeltelijk bewolkt 1981 m
Meestal bewolkt 2164 m
Zwaar bewolkt 2347 m
2019/11/23 01:25 EHWO 230125Z AUTO 09008KT 060V120 8000 -DZ SCT065 BKN071 OVC077 06/04 Q0998 BLU
EHRD - Rotterdam Airpor, Netherlands
Distance from station: NW 56km
Updated: 23-11-2019 01:55
Gedeeltelijk bewolkt
Gedeeltelijk bewolkt
 Wind van O
Wind: O 22 km/h
Temperatuur: 5°C
Wind Chill: 1°C
Dauwpunt: 3°C
Vochtigheid: 87%
Barometer: 998 hPa
Clouds: Gedeeltelijk bewolkt
Visibility: 9 km
2019/11/23 00:55 EHRD 230055Z AUTO 10012KT 060V130 9000 NSC 05/03 Q0998 NOSIG
EHDL - Deelen Rnlafb, Netherlands
Distance from station: NO 80km
Updated: 23-11-2019 02:25
Mist, Zwaar bewolkt
Mist, Zwaar bewolkt
 Wind van varies
Wind: varies 11 km/h
Temperatuur: 4°C
Wind Chill: 1°C
Dauwpunt: 3°C
Vochtigheid: 93%
Barometer: 1001 hPa
Overzicht: Mist
Clouds: Zwaar bewolkt
Visibility: 7 km
Cloud details: Enkele wolken 2256 m
Meestal bewolkt 2438 m
Zwaar bewolkt 2621 m
2019/11/23 01:25 EHDL 230125Z AUTO VRB06KT 7000 BR FEW074 BKN080 OVC086 04/03 Q1001 WHT
 
EHAM - Amsterdam/Schiph, Netherlands
Distance from station: N 83km
Updated: 23-11-2019 01:55
Helder
Helder
 Wind van OZO
Wind: OZO 20 km/h
Temperatuur: 6°C
Wind Chill: 2°C
Dauwpunt: 3°C
Vochtigheid: 81%
Barometer: 1000 hPa
Overzicht: Helder
Visibility: greater than 10 km
2019/11/23 00:55 EHAM 230055Z 12011KT CAVOK 06/03 Q1000 NOSIG
EHBK - Zuid-Limburg/Bee, Netherlands
Distance from station: ZO 91km
Updated: 23-11-2019 01:55
Gedeeltelijk bewolkt
Gedeeltelijk bewolkt
 Wind van O
Wind: O 11 km/h
Temperatuur: 5°C
Wind Chill: 2°C
Dauwpunt: 3°C
Vochtigheid: 87%
Barometer: 998 hPa
Clouds: Gedeeltelijk bewolkt
Visibility: 10 km
2019/11/23 00:55 EHBK 230055Z AUTO 10006KT 040V160 9999 NSC 05/03 Q0998
EHFS - Vlissingen, Netherlands
Distance from station: W 99km
Updated: 23-11-2019 01:55
Gedeeltelijk bewolkt
Gedeeltelijk bewolkt
 Wind van O
Wind: O 33 km/h
Temperatuur: 8°C
Wind Chill: 3°C
Dauwpunt: 5°C
Vochtigheid: 82%
Barometer: 996 hPa
Clouds: Gedeeltelijk bewolkt
Visibility: 10 km
2019/11/23 00:55 EHFS 230055Z AUTO 10018KT 9999 NSC 08/05 Q0996 REDZ W///H///
 
EHSC - Goeree Le Sea, Netherlands
Distance from station: WNW 100km
Updated: 23-11-2019 01:55

 Wind van OZO
Wind: OZO 43 km/h
Temperatuur: 7°C
Wind Chill: 2°C
Dauwpunt: 5°C
Vochtigheid: 87%
Barometer: 997 hPa
Visibility: 9 km
2019/11/23 00:55 EHSC 230055Z AUTO 11023KT 9000 ///////// 07/05 Q0997 W10/H10
EBBL - Kleine-Brogel(Ba, Belgium
Distance from station: ZO 56km
Updated: 23-11-2019 01:55
Zwaar bewolkt
Zwaar bewolkt
 Wind van ONO
Wind: ONO 11 km/h
Temperatuur: 5°C
Wind Chill: 2°C
Dauwpunt: 3°C
Vochtigheid: 87%
Barometer: 999 hPa
Clouds: Zwaar bewolkt
Visibility: 10 km
Cloud details: Enkele wolken 396 m
Zwaar bewolkt 2103 m
2019/11/23 00:55 EBBL 230055Z AUTO 07006KT 9999 FEW013/// OVC069/// 05/03 Q0999 BLU
EBAW - Antwerp/Deurne, Belgium
Distance from station: ZW 57km
Updated: 23-11-2019 02:20
Lichte regen, Showers, Enkele wolken
Lichte regen, Showers, Enkele wolken
 Wind van O
Wind: O 13 km/h
Temperatuur: 6°C
Wind Chill: 3°C
Dauwpunt: 4°C
Vochtigheid: 87%
Barometer: 997 hPa
Overzicht: Lichte regen, Showers
Clouds: Enkele wolken
Visibility: 7 km
Cloud details: Enkele wolken 152 m
2019/11/23 01:20 EBAW 230120Z AUTO 08007KT 7000 -SHRA FEW005/// 06/04 Q0997
 
EBDT - Schaffen, Belgium
Distance from station: Z 63km
Updated: 23-11-2019 02:10
Lichte regen, Zwaar bewolkt
Lichte regen, Zwaar bewolkt
 Wind van ONO
Wind: ONO 9 km/h
Temperatuur: 6°C
Wind Chill: 4°C
Dauwpunt: 4°C
Vochtigheid: 87%
Barometer: 998 hPa
Overzicht: Lichte regen
Clouds: Zwaar bewolkt
Visibility: 7 km
Cloud details: Enkele wolken 640 m
Meestal bewolkt 2286 m
Zwaar bewolkt 2743 m
2019/11/23 01:10 EBDT 230110Z AUTO 07005KT 7000 -RA FEW021/// BKN075/// OVC090/// 06/04 Q0998 WHT
EBBR - Brussels Nationa, Belgium
Distance from station: ZZW 83km
Updated: 23-11-2019 02:20
Lichte regen, Enkele wolken
Lichte regen, Enkele wolken
 Wind van O
Wind: O 17 km/h
Temperatuur: 6°C
Wind Chill: 3°C
Dauwpunt: 4°C
Vochtigheid: 87%
Barometer: 997 hPa
Overzicht: Lichte regen
Clouds: Enkele wolken
Visibility: 10 km
Cloud details: Enkele wolken 1402 m
2019/11/23 01:20 EBBR 230120Z 09009KT 9999 -RA FEW046 06/04 Q0997 NOSIG
EBBE - Beauvechain (baf, Belgium
Distance from station: Z 94km
Updated: 23-11-2019 01:55
Zwaar bewolkt
Zwaar bewolkt
 Wind van O
Wind: O 13 km/h
Temperatuur: 5°C
Wind Chill: 2°C
Dauwpunt: 4°C
Vochtigheid: 93%
Barometer: 997 hPa
Clouds: Zwaar bewolkt
Visibility: 10 km
Cloud details: Zwaar bewolkt 1981 m
2019/11/23 00:55 EBBE 230055Z AUTO 08007KT 9999 OVC065/// 05/04 Q0997 BLU
 
EDLV - Niederrhein, Germany
Distance from station: O 79km
Updated: 22-11-2019 23:50
NOT Current
Helder
Helder
 Wind van OZO
Wind: OZO 9 km/h
Temperatuur: 5°C
Wind Chill: 3°C
Dauwpunt: 3°C
Vochtigheid: 87%
Barometer: 1001 hPa
Overzicht: Helder
Visibility: greater than 10 km
2019/11/22 22:50 EDLV 222250Z 12005KT CAVOK 05/03 Q1001
ETNG - Geilenkirchen(Na, Germany
Distance from station: ZO 99km
Updated: 22-11-2019 19:50
NOT Current
Helder
Helder
 Wind van OZO
Wind: OZO 26 km/h
Temperatuur: 5°C
Wind Chill: 1°C
Dauwpunt: 3°C
Vochtigheid: 87%
Barometer: 1002 hPa
Overzicht: Helder
Visibility: greater than 10 km
2019/11/22 18:50 ETNG 221850Z 11014KT CAVOK 05/03 Q1002 NOSIG